Flight Briefing for CMB817

Departure Arrival
RAF Mildenhall (EGUN)
Click to view FAA NOTAMS
Ramstein Air Force Base (ETAR)
Click to view FAA NOTAMS
Departure Time Arrival Time
N/A N/A
Aircraft Distance
B767-300BDSF 322nm
Departure METAR Arrival METAR
EGUN 181506Z 29010KT 9999 RA SCT034 BKN046 BKN060 10/08 A3012 RMK AO2A RAB01 SLP203 WND DATA ESTMD $ ETAR 181456Z 27010KT 9999 CLR 10/00 A3010 RMK AO2A SLP203 60000 T00961003 55001 $
Suggested Route





View recent IFR Routes data
Notes
USTRANSCOM CONTRACT FLIGHT

Charts and Procedures

Charts for EGUN
No chart available
Charts for ETAR
No chart available

Windy.com Weather Map